Time;durP1;ratioP1;P1;durP2;ratioP2;P2;SDS_P1;SDS_P2;PMS_P1;PMS_P2;Temp;Humidity;BMP_temperature;BMP_pressure;BME280_temperature;BME280_humidity;BME280_pressure;Samples;Min_cycle;Max_cycle;Signal;HPM_P1;HPM_P2
2022/03/15 00:00:24;;;;;;;6.10;4.60;;;7.20;99.90;;;;;;5061227;28;20176;-85
2022/03/15 00:02:50;;;;;;;5.03;3.80;;;7.70;99.90;;;;;;5054325;28;20432;-85
2022/03/15 00:05:17;;;;;;;4.13;3.77;;;7.70;99.90;;;;;;5076173;28;20284;-86
2022/03/15 00:07:43;;;;;;;6.35;4.30;;;7.50;99.90;;;;;;5056672;28;20215;-85
2022/03/15 00:10:11;;;;;;;5.85;4.15;;;7.70;99.90;;;;;;5065522;28;20180;-85
2022/03/15 00:12:36;;;;;;;4.30;3.63;;;7.30;99.90;;;;;;5049069;28;20185;-85
2022/03/15 00:15:02;;;;;;;5.90;3.37;;;7.30;99.90;;;;;;5047025;28;20204;-85
2022/03/15 00:17:28;;;;;;;6.10;3.60;;;6.90;99.90;;;;;;5069900;28;20716;-85
2022/03/15 00:19:54;;;;;;;5.60;4.00;;;7.40;99.90;;;;;;5078935;28;20175;-85
2022/03/15 00:22:20;;;;;;;5.87;3.90;;;7.40;99.90;;;;;;5049222;28;20196;-85
2022/03/15 00:24:46;;;;;;;5.10;3.67;;;7.30;99.90;;;;;;5077264;28;20203;-85
2022/03/15 00:27:12;;;;;;;5.13;4.47;;;7.40;99.90;;;;;;5075107;28;20521;-86
2022/03/15 00:29:38;;;;;;;4.90;3.80;;;7.40;99.90;;;;;;5052753;28;20212;-86
2022/03/15 00:32:05;;;;;;;5.55;4.20;;;7.90;99.90;;;;;;5061686;28;20434;-86
2022/03/15 00:34:30;;;;;;;5.50;3.90;;;7.40;99.90;;;;;;5063409;28;20211;-85
2022/03/15 00:36:56;;;;;;;7.03;3.63;;;7.20;99.90;;;;;;5068316;28;20500;-85
2022/03/15 00:39:21;;;;;;;5.77;3.60;;;7.10;99.90;;;;;;5066543;28;20207;-85
2022/03/15 00:41:47;;;;;;;5.57;3.43;;;7.00;99.90;;;;;;5050256;28;20196;-85
2022/03/15 00:44:13;;;;;;;5.97;3.77;;;7.30;99.90;;;;;;5051508;28;20647;-86
2022/03/15 00:46:38;;;;;;;5.33;3.47;;;7.40;99.90;;;;;;5075381;28;20549;-85
2022/03/15 00:49:04;;;;;;;3.53;2.90;;;7.80;99.90;;;;;;5063259;28;20174;-86
2022/03/15 00:51:29;;;;;;;4.90;3.37;;;7.30;99.90;;;;;;5070694;28;20177;-86
2022/03/15 00:53:55;;;;;;;6.07;3.40;;;7.50;99.90;;;;;;5055770;28;20318;-85
2022/03/15 00:56:20;;;;;;;7.10;4.00;;;7.50;99.90;;;;;;5054131;28;20207;-85
2022/03/15 00:58:46;;;;;;;4.87;3.40;;;7.80;99.90;;;;;;5042740;28;20196;-85
2022/03/15 01:01:12;;;;;;;4.33;3.37;;;7.40;99.90;;;;;;5054109;28;20184;-85
2022/03/15 01:03:37;;;;;;;4.30;3.60;;;7.60;99.90;;;;;;5077080;28;20196;-85
2022/03/15 01:06:03;;;;;;;6.57;3.27;;;7.60;99.90;;;;;;5074803;28;20212;-86
2022/03/15 01:08:28;;;;;;;3.67;3.20;;;7.60;99.90;;;;;;5055389;28;20185;-85
2022/03/15 01:10:54;;;;;;;4.07;3.77;;;7.40;99.90;;;;;;5049501;28;20185;-85
2022/03/15 01:13:19;;;;;;;5.17;3.70;;;7.20;99.90;;;;;;5073898;28;20270;-85
2022/03/15 01:15:45;;;;;;;5.83;3.90;;;7.60;99.90;;;;;;5058764;28;20207;-85
2022/03/15 01:18:12;;;;;;;4.47;4.07;;;7.40;99.90;;;;;;5049457;28;20177;-84
2022/03/15 01:20:39;;;;;;;5.03;3.95;;;7.50;99.90;;;;;;5055873;28;20254;-86
2022/03/15 01:23:05;;;;;;;4.45;3.35;;;7.50;99.90;;;;;;5055711;28;20656;-85
2022/03/15 01:25:31;;;;;;;5.30;3.57;;;7.20;99.90;;;;;;5049798;28;20272;-85
2022/03/15 01:27:56;;;;;;;4.63;3.50;;;7.40;99.90;;;;;;5069139;28;20293;-85
2022/03/15 01:30:23;;;;;;;3.77;3.13;;;7.30;99.90;;;;;;5057689;28;20189;-86
2022/03/15 01:32:48;;;;;;;4.90;3.50;;;7.20;99.90;;;;;;5055029;28;20185;-85
2022/03/15 01:35:14;;;;;;;4.17;3.77;;;7.80;99.90;;;;;;5075921;28;20199;-85
2022/03/15 01:37:40;;;;;;;3.95;3.65;;;7.40;99.90;;;;;;5054712;28;20201;-85
2022/03/15 01:40:06;;;;;;;6.80;3.80;;;7.30;99.90;;;;;;5055673;28;20172;-85
2022/03/15 01:42:32;;;;;;;4.90;4.00;;;7.20;99.90;;;;;;5057855;28;20185;-85
2022/03/15 01:45:02;;;;;;;4.43;3.23;;;7.40;99.90;;;;;;5063485;28;20209;-85
2022/03/15 01:47:28;;;;;;;5.85;3.35;;;7.40;99.90;;;;;;5049997;28;20209;-85
2022/03/15 01:49:53;;;;;;;5.67;3.67;;;7.30;99.90;;;;;;5058672;28;20650;-85
2022/03/15 01:52:19;;;;;;;5.03;3.50;;;7.40;99.90;;;;;;5064350;28;20415;-85
2022/03/15 01:54:45;;;;;;;4.50;3.67;;;7.20;99.90;;;;;;5052647;28;20277;-85
2022/03/15 01:57:11;;;;;;;5.60;3.87;;;7.30;99.90;;;;;;5056375;28;20676;-86
2022/03/15 01:59:36;;;;;;;6.00;3.47;;;7.40;99.90;;;;;;5052780;28;20273;-85
2022/03/15 02:02:03;;;;;;;4.40;3.30;;;7.40;99.90;;;;;;5054929;28;20522;-85
2022/03/15 02:04:29;;;;;;;4.22;3.10;;;7.30;99.90;;;;;;5058336;28;20448;-85
2022/03/15 02:07:06;;;;;;;5.30;3.67;;;7.50;99.90;;;;;;5056022;28;20220;-85
2022/03/15 02:09:31;;;;;;;3.97;3.10;;;7.10;99.90;;;;;;5054467;28;20235;-85
2022/03/15 02:11:58;;;;;;;6.27;3.47;;;7.10;99.90;;;;;;5082785;28;20177;-85
2022/03/15 02:14:24;;;;;;;4.90;3.92;;;6.70;99.90;;;;;;5054166;28;20247;-85
2022/03/15 02:16:50;;;;;;;4.20;3.50;;;7.50;99.90;;;;;;5068865;28;20661;-85
2022/03/15 02:19:15;;;;;;;6.10;4.43;;;7.60;99.90;;;;;;5071113;28;20188;-85
2022/03/15 02:21:41;;;;;;;3.67;3.33;;;7.30;99.90;;;;;;5083983;28;20176;-85
2022/03/15 02:24:06;;;;;;;3.17;2.83;;;7.20;99.90;;;;;;5054869;28;20185;-85
2022/03/15 02:26:32;;;;;;;4.77;3.20;;;7.40;99.90;;;;;;5048882;28;20273;-85
2022/03/15 02:28:57;;;;;;;4.73;3.50;;;7.30;99.90;;;;;;5051792;28;20180;-85
2022/03/15 02:31:24;;;;;;;3.90;3.50;;;7.10;99.90;;;;;;5082885;28;20177;-85
2022/03/15 02:33:50;;;;;;;3.55;2.88;;;7.10;99.90;;;;;;5086063;28;20184;-84
2022/03/15 02:36:16;;;;;;;5.05;4.47;;;7.20;99.90;;;;;;5056227;28;20212;-85
2022/03/15 02:38:45;;;;;;;6.50;3.77;;;7.10;99.90;;;;;;5058182;28;20189;-85
2022/03/15 02:41:11;;;;;;;4.15;3.75;;;7.10;99.90;;;;;;5059083;28;20445;-85
2022/03/15 02:43:38;;;;;;;3.55;3.20;;;6.60;99.90;;;;;;5048230;28;20190;-85
2022/03/15 02:46:04;;;;;;;3.95;3.30;;;7.20;99.90;;;;;;5071628;28;20220;-85
2022/03/15 02:48:29;;;;;;;4.80;2.97;;;7.60;99.90;;;;;;5083042;28;20697;-85
2022/03/15 02:50:58;;;;;;;5.00;3.53;;;7.10;99.90;;;;;;5055629;28;20263;-85
2022/03/15 02:53:24;;;;;;;5.25;3.00;;;7.10;99.90;;;;;;5078341;28;20184;-85
2022/03/15 02:55:51;;;;;;;4.30;3.30;;;7.30;99.90;;;;;;5060865;28;20215;-85
2022/03/15 02:58:18;;;;;;;4.47;3.33;;;6.80;99.90;;;;;;5052547;28;20440;-85
2022/03/15 03:00:44;;;;;;;4.05;3.22;;;7.60;99.90;;;;;;5059127;28;20192;-85
2022/03/15 03:03:09;;;;;;;5.55;3.83;;;7.70;99.90;;;;;;5056272;28;20180;-86
2022/03/15 03:05:35;;;;;;;3.43;3.13;;;7.00;99.90;;;;;;5054745;28;20246;-85
2022/03/15 03:08:03;;;;;;;4.90;3.47;;;7.30;99.90;;;;;;5072566;28;20274;-85
2022/03/15 03:10:29;;;;;;;6.22;3.40;;;7.70;99.90;;;;;;5057279;28;20196;-85
2022/03/15 03:12:55;;;;;;;3.60;3.20;;;7.20;99.90;;;;;;5074771;28;20176;-86
2022/03/15 03:15:22;;;;;;;5.40;3.50;;;7.50;99.90;;;;;;5062333;28;20550;-85
2022/03/15 03:17:48;;;;;;;3.83;3.00;;;7.10;99.90;;;;;;5057474;28;20189;-85
2022/03/15 03:20:19;;;;;;;5.77;3.23;;;7.20;99.90;;;;;;5081772;28;20183;-85
2022/03/15 03:22:46;;;;;;;5.15;3.28;;;7.10;99.90;;;;;;5055513;28;20485;-85
2022/03/15 03:25:12;;;;;;;4.35;3.85;;;7.00;99.90;;;;;;5051562;28;20228;-86
2022/03/15 03:27:38;;;;;;;5.60;3.77;;;7.40;99.90;;;;;;5058448;28;20251;-85
2022/03/15 03:30:04;;;;;;;5.47;4.07;;;7.20;99.90;;;;;;5057733;28;20426;-86
2022/03/15 03:32:30;;;;;;;4.28;3.88;;;7.30;99.90;;;;;;5071411;28;20181;-85
2022/03/15 03:34:57;;;;;;;5.90;3.30;;;7.20;99.90;;;;;;5066924;28;20198;-85
2022/03/15 03:37:25;;;;;;;3.45;3.20;;;7.00;99.90;;;;;;5075361;28;20242;-85
2022/03/15 03:39:51;;;;;;;3.17;2.78;;;7.10;99.90;;;;;;5062007;28;20219;-86
2022/03/15 03:42:17;;;;;;;4.00;3.65;;;7.30;99.90;;;;;;5051352;28;20217;-86
2022/03/15 03:44:43;;;;;;;3.97;3.50;;;7.50;99.90;;;;;;5054861;28;20213;-85
2022/03/15 03:47:12;;;;;;;5.90;3.73;;;7.50;99.90;;;;;;5057401;28;20280;-86
2022/03/15 03:49:39;;;;;;;4.15;3.28;;;7.20;99.90;;;;;;5051003;28;20208;-86
2022/03/15 03:52:05;;;;;;;3.72;3.40;;;7.30;99.90;;;;;;5057320;28;20177;-86
2022/03/15 03:54:31;;;;;;;7.47;3.28;;;7.10;99.90;;;;;;5066501;28;20265;-86
2022/03/15 03:56:57;;;;;;;3.07;2.77;;;7.20;99.90;;;;;;5045899;28;20192;-86
2022/03/15 03:59:23;;;;;;;4.80;3.43;;;7.30;99.90;;;;;;5061520;28;20517;-86
2022/03/15 04:01:49;;;;;;;3.58;2.80;;;7.30;99.90;;;;;;5053649;28;20465;-86
2022/03/15 04:04:14;;;;;;;4.10;3.30;;;7.40;99.90;;;;;;5059259;28;20753;-86
2022/03/15 04:06:40;;;;;;;5.23;3.60;;;7.60;99.90;;;;;;5073471;28;20664;-85
2022/03/15 04:09:09;;;;;;;6.13;3.40;;;7.50;99.90;;;;;;5060829;28;20268;-86
2022/03/15 04:11:34;;;;;;;6.25;3.50;;;6.60;99.90;;;;;;5056976;28;20186;-86
2022/03/15 04:14:01;;;;;;;3.20;2.90;;;7.30;99.90;;;;;;5053953;28;20183;-85
2022/03/15 04:16:27;;;;;;;3.97;3.55;;;7.10;99.90;;;;;;5058101;28;20207;-86
2022/03/15 04:18:53;;;;;;;4.28;3.10;;;7.20;99.90;;;;;;5061359;28;20185;-85
2022/03/15 04:21:22;;;;;;;6.40;3.90;;;7.00;99.90;;;;;;5071537;28;20230;-85
2022/03/15 04:23:48;;;;;;;4.82;3.35;;;6.90;99.90;;;;;;5069356;28;20186;-85
2022/03/15 04:26:13;;;;;;;3.73;3.00;;;7.10;99.90;;;;;;5062762;28;20205;-86
2022/03/15 04:28:39;;;;;;;5.23;3.50;;;7.10;99.90;;;;;;5049378;28;20199;-86
2022/03/15 04:31:04;;;;;;;3.80;3.03;;;7.50;99.90;;;;;;5061736;28;20193;-86
2022/03/15 04:33:30;;;;;;;3.87;3.47;;;7.20;99.90;;;;;;5055036;28;20189;-85
2022/03/15 04:35:55;;;;;;;4.53;3.97;;;7.60;99.90;;;;;;5058225;28;20203;-86
2022/03/15 04:38:21;;;;;;;4.90;3.50;;;7.20;99.90;;;;;;5052727;28;20335;-86
2022/03/15 04:40:46;;;;;;;7.90;3.13;;;7.00;99.90;;;;;;5052087;28;20698;-86
2022/03/15 04:43:12;;;;;;;3.63;3.30;;;7.40;99.90;;;;;;5063555;28;20636;-86
2022/03/15 04:45:38;;;;;;;5.05;3.70;;;7.40;99.90;;;;;;5060922;28;20221;-85
2022/03/15 04:48:05;;;;;;;3.78;3.25;;;7.10;99.90;;;;;;5051892;28;20677;-86
2022/03/15 04:50:30;;;;;;;3.80;3.15;;;7.10;99.90;;;;;;5071236;28;20173;-86
2022/03/15 04:52:56;;;;;;;4.27;3.67;;;7.30;99.90;;;;;;5070637;28;20168;-86
2022/03/15 04:55:22;;;;;;;6.27;3.33;;;7.00;99.90;;;;;;5066534;28;20204;-86
2022/03/15 04:57:47;;;;;;;4.43;3.40;;;8.20;99.90;;;;;;5061334;28;20184;-86
2022/03/15 05:00:13;;;;;;;4.27;3.30;;;7.10;99.90;;;;;;5061694;28;20180;-86
2022/03/15 05:02:44;;;;;;;4.93;4.20;;;7.10;99.90;;;;;;5052472;28;20264;-86
2022/03/15 05:05:10;;;;;;;5.38;4.38;;;6.70;99.90;;;;;;5048272;28;20211;-85
2022/03/15 05:07:35;;;;;;;4.45;3.90;;;7.10;99.90;;;;;;5046748;28;20298;-85
2022/03/15 05:12:45;;;;;;;5.55;3.72;;;7.20;99.90;;;;;;5069120;28;20187;-85
2022/03/15 05:15:11;;;;;;;3.50;3.20;;;7.30;99.90;;;;;;5053389;28;20197;-85
2022/03/15 05:17:37;;;;;;;6.17;3.53;;;7.10;99.90;;;;;;5070794;28;20432;-85
2022/03/15 05:20:05;;;;;;;3.97;3.50;;;6.60;99.90;;;;;;5063900;28;20431;-85
2022/03/15 05:22:31;;;;;;;5.07;3.63;;;6.80;99.90;;;;;;5055262;28;20192;-85
2022/03/15 05:24:57;;;;;;;4.85;3.72;;;7.30;99.90;;;;;;5053872;28;20230;-85
2022/03/15 05:27:23;;;;;;;4.03;3.45;;;7.00;99.90;;;;;;5050343;28;20335;-85
2022/03/15 05:29:49;;;;;;;3.03;2.83;;;6.70;99.90;;;;;;5072767;28;20189;-86
2022/03/15 05:32:14;;;;;;;7.93;3.50;;;7.10;99.90;;;;;;5068993;28;20215;-86
2022/03/15 05:34:40;;;;;;;8.73;4.47;;;7.10;99.90;;;;;;5055614;28;20680;-86
2022/03/15 05:37:08;;;;;;;7.20;3.90;;;6.80;99.90;;;;;;5057947;28;20192;-86
2022/03/15 05:39:34;;;;;;;4.13;3.20;;;7.00;99.90;;;;;;5057700;28;20683;-85
2022/03/15 05:42:00;;;;;;;7.32;3.75;;;7.40;99.90;;;;;;5076663;28;20335;-86
2022/03/15 05:44:26;;;;;;;6.30;4.77;;;7.10;99.90;;;;;;5069268;28;20288;-86
2022/03/15 05:46:52;;;;;;;7.43;3.70;;;6.80;99.90;;;;;;5054459;28;20223;-85
2022/03/15 05:49:17;;;;;;;5.57;3.67;;;7.40;99.90;;;;;;5065781;28;20177;-86
2022/03/15 05:51:43;;;;;;;5.13;3.47;;;7.10;99.90;;;;;;5056407;28;21924;-86
2022/03/15 05:54:09;;;;;;;7.20;4.07;;;7.20;99.90;;;;;;5070987;28;20648;-86
2022/03/15 05:56:34;;;;;;;4.43;3.30;;;7.10;99.90;;;;;;5058860;28;20197;-86
2022/03/15 05:59:00;;;;;;;6.10;3.30;;;7.30;99.90;;;;;;5048365;28;20189;-86
2022/03/15 06:01:26;;;;;;;4.30;3.63;;;7.10;99.90;;;;;;5063546;28;20705;-86
2022/03/15 06:03:53;;;;;;;5.70;3.33;;;6.90;99.90;;;;;;5084684;28;20189;-86
2022/03/15 06:06:20;;;;;;;4.38;3.80;;;7.50;99.90;;;;;;5075622;28;20204;-86
2022/03/15 06:08:45;;;;;;;4.55;3.58;;;7.10;99.90;;;;;;5053310;28;20180;-85
2022/03/15 06:11:11;;;;;;;5.17;3.70;;;7.70;99.90;;;;;;5062053;28;20181;-86
2022/03/15 06:13:36;;;;;;;7.93;4.73;;;7.20;99.90;;;;;;5064124;28;20185;-85
2022/03/15 06:16:02;;;;;;;5.93;3.70;;;7.30;99.90;;;;;;5056895;28;20201;-84
2022/03/15 06:18:28;;;;;;;4.63;4.20;;;7.30;99.90;;;;;;5061711;28;20188;-85
2022/03/15 06:20:53;;;;;;;8.33;4.57;;;7.30;99.90;;;;;;5074138;28;20188;-86
2022/03/15 06:23:23;;;;;;;8.07;4.60;;;7.30;99.90;;;;;;5058110;28;20837;-85
2022/03/15 06:25:49;;;;;;;6.43;4.07;;;7.70;99.90;;;;;;5053472;28;20714;-85
2022/03/15 06:28:14;;;;;;;6.73;4.60;;;7.60;99.90;;;;;;5053562;28;20182;-85
2022/03/15 06:30:41;;;;;;;5.83;4.30;;;7.90;99.90;;;;;;5063395;28;20649;-82
2022/03/15 06:33:07;;;;;;;6.68;4.75;;;7.90;99.90;;;;;;5042492;28;20298;-91
2022/03/15 06:35:33;;;;;;;6.40;4.10;;;7.90;99.90;;;;;;5047407;28;20224;-89
2022/03/15 06:37:59;;;;;;;6.82;4.50;;;7.50;99.90;;;;;;5045766;28;20440;-89
2022/03/15 06:40:26;;;;;;;7.53;4.45;;;7.60;99.90;;;;;;5074212;28;20185;-95
2022/03/15 06:42:55;;;;;;;13.65;4.43;;;7.70;99.90;;;;;;5054382;28;20181;-89
2022/03/15 06:45:22;;;;;;;8.55;4.95;;;7.90;99.90;;;;;;5045556;28;20217;-88
2022/03/15 06:47:49;;;;;;;6.18;4.40;;;8.00;99.90;;;;;;5053102;28;20204;-90
2022/03/15 06:50:15;;;;;;;6.05;4.07;;;7.70;99.90;;;;;;5053479;28;20181;-89
2022/03/15 06:52:42;;;;;;;5.18;4.32;;;8.40;99.90;;;;;;5053739;28;20760;-90
2022/03/15 06:55:09;;;;;;;6.07;4.22;;;8.80;99.90;;;;;;5056427;28;20209;-88
2022/03/15 06:57:35;;;;;;;4.93;4.22;;;8.40;99.90;;;;;;5060434;28;20185;-88
2022/03/15 07:00:05;;;;;;;7.70;4.27;;;8.50;99.90;;;;;;5070229;28;20723;-88
2022/03/15 07:02:30;;;;;;;6.18;3.92;;;8.60;99.90;;;;;;5054120;28;20231;-88
2022/03/15 07:04:56;;;;;;;5.30;4.80;;;9.00;99.90;;;;;;5045580;28;20296;-89
2022/03/15 07:07:21;;;;;;;6.13;5.17;;;8.20;99.90;;;;;;5047689;28;20264;-87
2022/03/15 07:09:47;;;;;;;9.03;4.87;;;8.60;99.90;;;;;;5046589;28;20181;-78
2022/03/15 07:12:13;;;;;;;9.05;5.25;;;8.80;99.90;;;;;;5071440;28;20205;-92
2022/03/15 07:14:38;;;;;;;7.10;4.60;;;9.30;99.90;;;;;;5047977;28;20275;-86
2022/03/15 07:17:04;;;;;;;7.00;4.77;;;9.00;99.90;;;;;;5041807;28;20178;-84
2022/03/15 07:19:30;;;;;;;5.80;4.23;;;9.10;99.60;;;;;;5070553;28;20226;-85
2022/03/15 07:21:55;;;;;;;4.43;4.03;;;9.30;99.40;;;;;;5048409;28;20543;-84
2022/03/15 07:24:21;;;;;;;7.80;5.17;;;9.70;99.30;;;;;;5048156;28;20200;-85
2022/03/15 07:26:47;;;;;;;4.80;3.90;;;9.90;98.90;;;;;;5049706;28;20201;-84
2022/03/15 07:29:13;;;;;;;5.67;3.77;;;9.80;98.60;;;;;;5047357;28;20448;-87
2022/03/15 07:31:39;;;;;;;4.50;4.10;;;9.50;97.90;;;;;;5067558;28;20467;-85
2022/03/15 07:34:04;;;;;;;9.63;6.03;;;10.10;97.10;;;;;;5050565;28;20416;-86
2022/03/15 07:36:30;;;;;;;6.00;5.00;;;9.70;97.40;;;;;;5051276;28;20181;-86
2022/03/15 07:38:55;;;;;;;5.87;3.93;;;9.90;97.40;;;;;;5065078;28;20185;-86
2022/03/15 07:41:23;;;;;;;4.43;3.83;;;10.30;97.00;;;;;;5046176;28;20186;-86
2022/03/15 07:43:49;;;;;;;6.78;3.95;;;9.90;97.10;;;;;;5042818;28;20743;-86
2022/03/15 07:46:15;;;;;;;7.30;4.65;;;9.80;97.00;;;;;;5054223;28;20215;-86
2022/03/15 07:48:40;;;;;;;5.03;4.63;;;10.20;96.60;;;;;;5065504;28;20260;-84
2022/03/15 07:51:06;;;;;;;4.07;3.67;;;10.50;96.50;;;;;;5051448;28;20189;-84
2022/03/15 07:53:31;;;;;;;9.10;5.30;;;10.20;96.40;;;;;;5068760;28;20609;-86
2022/03/15 07:55:59;;;;;;;7.13;4.60;;;10.70;96.40;;;;;;5053019;28;20238;-85
2022/03/15 07:58:24;;;;;;;6.30;4.35;;;10.50;96.20;;;;;;5047971;28;20195;-85
2022/03/15 08:00:54;;;;;;;9.07;4.40;;;10.40;96.30;;;;;;5067198;28;20194;-82
2022/03/15 08:03:19;;;;;;;5.47;4.35;;;10.40;96.30;;;;;;5060503;28;20187;-80
2022/03/15 08:05:45;;;;;;;10.90;4.90;;;10.20;96.00;;;;;;5045154;28;20207;-80
2022/03/15 08:08:10;;;;;;;5.43;4.40;;;10.80;96.40;;;;;;5064011;28;20641;-85
2022/03/15 08:10:36;;;;;;;6.23;4.27;;;10.90;95.80;;;;;;5049729;28;20202;-85
2022/03/15 08:13:02;;;;;;;5.73;4.13;;;10.90;95.20;;;;;;5036528;28;20573;-79
2022/03/15 08:15:28;;;;;;;4.40;3.83;;;10.80;94.60;;;;;;5037304;28;20241;-83
2022/03/15 08:17:53;;;;;;;6.80;5.00;;;11.00;94.70;;;;;;5045734;28;20175;-85
2022/03/15 08:20:20;;;;;;;6.63;4.60;;;10.80;94.30;;;;;;5046253;28;20677;-87
2022/03/15 08:22:46;;;;;;;6.25;3.72;;;10.70;94.60;;;;;;5042523;28;20184;-84
2022/03/15 08:25:12;;;;;;;6.25;4.25;;;11.20;94.40;;;;;;5043121;28;20261;-86
2022/03/15 08:27:37;;;;;;;6.87;4.00;;;10.90;93.90;;;;;;5048021;28;20932;-86
2022/03/15 08:30:04;;;;;;;5.60;3.77;;;11.30;93.60;;;;;;5046068;28;20192;-83
2022/03/15 08:32:30;;;;;;;3.75;3.45;;;11.80;92.70;;;;;;5042498;28;20198;-84
2022/03/15 08:34:56;;;;;;;6.93;3.60;;;12.10;92.00;;;;;;5041959;28;20214;-84
2022/03/15 08:37:21;;;;;;;4.97;3.35;;;12.10;91.60;;;;;;5042712;28;20249;-84
2022/03/15 08:39:47;;;;;;;6.50;3.10;;;12.10;91.10;;;;;;5050079;28;20185;-85
2022/03/15 08:42:14;;;;;;;8.00;3.73;;;12.40;90.60;;;;;;5059387;28;20196;-86
2022/03/15 08:44:39;;;;;;;3.30;2.97;;;12.70;90.40;;;;;;5042249;28;20251;-87
2022/03/15 08:47:05;;;;;;;5.73;3.87;;;12.90;89.30;;;;;;5051488;28;20248;-86
2022/03/15 08:49:31;;;;;;;5.00;3.13;;;13.10;88.70;;;;;;5052604;28;20230;-86
2022/03/15 08:51:57;;;;;;;4.40;3.40;;;13.40;88.80;;;;;;5052787;28;20177;-88
2022/03/15 08:54:23;;;;;;;4.87;3.00;;;12.90;89.20;;;;;;5043501;28;20206;-86
2022/03/15 08:56:49;;;;;;;7.03;3.53;;;12.70;89.40;;;;;;5062490;28;20219;-85
2022/03/15 08:59:15;;;;;;;5.70;2.50;;;12.60;90.00;;;;;;5040569;28;20189;-83
2022/03/15 09:01:42;;;;;;;6.85;3.25;;;13.00;89.20;;;;;;5051962;28;20976;-84
2022/03/15 09:04:08;;;;;;;5.38;3.13;;;13.10;88.80;;;;;;5048021;28;20272;-86
2022/03/15 09:06:33;;;;;;;3.33;2.90;;;12.70;88.00;;;;;;5047430;28;20759;-86
2022/03/15 09:09:00;;;;;;;6.90;3.60;;;12.80;88.10;;;;;;5048853;28;20203;-84
2022/03/15 09:11:27;;;;;;;14.73;3.28;;;12.90;88.40;;;;;;5060117;28;20242;-87
2022/03/15 09:13:53;;;;;;;4.50;2.65;;;12.90;88.80;;;;;;5045529;28;20466;-86
2022/03/15 09:16:19;;;;;;;4.80;3.10;;;13.30;90.10;;;;;;5065477;28;20201;-86
2022/03/15 09:18:44;;;;;;;3.73;2.80;;;12.60;91.30;;;;;;5052847;28;20192;-85
2022/03/15 09:21:10;;;;;;;3.57;2.73;;;13.00;92.40;;;;;;5057807;28;20193;-86
2022/03/15 09:23:35;;;;;;;5.07;2.70;;;12.80;93.40;;;;;;5040913;28;20439;-86
2022/03/15 09:26:01;;;;;;;4.00;3.60;;;12.40;94.40;;;;;;5037597;28;20235;-83
2022/03/15 09:28:26;;;;;;;2.67;2.47;;;12.70;95.50;;;;;;5064448;28;20531;-84
2022/03/15 09:30:52;;;;;;;3.37;2.37;;;12.50;96.10;;;;;;5044167;28;20224;-85
2022/03/15 09:33:19;;;;;;;3.77;2.73;;;12.30;96.50;;;;;;5072553;28;20193;-89
2022/03/15 09:35:45;;;;;;;3.78;2.58;;;12.30;96.90;;;;;;5056250;28;20197;-88
2022/03/15 09:38:11;;;;;;;3.40;2.60;;;12.80;97.00;;;;;;5050429;28;20628;-83
2022/03/15 09:40:36;;;;;;;3.10;2.80;;;12.80;97.70;;;;;;5052211;28;20575;-85
2022/03/15 09:43:03;;;;;;;4.20;2.73;;;12.10;98.00;;;;;;5047855;28;20243;-84
2022/03/15 09:45:33;;;;;;;3.85;2.72;;;12.60;98.80;;;;;;5044693;28;20487;-85
2022/03/15 09:48:02;;;;;;;4.38;2.90;;;12.20;99.20;;;;;;5046778;28;20181;-86
2022/03/15 09:50:28;;;;;;;2.65;2.40;;;12.40;99.90;;;;;;5057118;28;20188;-86
2022/03/15 09:52:56;;;;;;;2.80;2.50;;;12.00;99.90;;;;;;5041941;28;20191;-87
2022/03/15 09:55:22;;;;;;;2.63;2.42;;;12.60;99.90;;;;;;5048255;28;20210;-87
2022/03/15 09:57:48;;;;;;;3.42;2.55;;;12.30;99.90;;;;;;5046005;28;20774;-84
2022/03/15 10:00:16;;;;;;;3.90;2.70;;;12.50;99.90;;;;;;5041805;28;20391;-86
2022/03/15 10:02:43;;;;;;;4.35;3.95;;;12.10;99.90;;;;;;5062409;28;20299;-85
2022/03/15 10:05:10;;;;;;;3.30;3.00;;;12.00;99.90;;;;;;5067981;28;20204;-87
2022/03/15 10:07:36;;;;;;;5.53;2.85;;;11.90;99.90;;;;;;5043361;28;20294;-84
2022/03/15 10:10:06;;;;;;;5.40;4.50;;;11.90;99.90;;;;;;5053241;28;20180;-89
2022/03/15 10:12:32;;;;;;;4.93;3.55;;;12.00;99.90;;;;;;5055323;28;20177;-89
2022/03/15 10:15:21;;;;;;;3.10;2.80;;;12.30;99.90;;;;;;5053367;28;20212;-89
2022/03/15 10:17:53;;;;;;;2.90;2.47;;;12.00;99.90;;;;;;5050639;28;20216;-89
2022/03/15 10:20:21;;;;;;;4.22;2.63;;;11.90;99.90;;;;;;5053062;28;20187;-91
2022/03/15 10:22:52;;;;;;;3.10;2.80;;;12.10;99.90;;;;;;5064188;28;20283;-86
2022/03/15 10:25:20;;;;;;;3.80;2.58;;;12.50;99.90;;;;;;5049285;28;20197;-91
2022/03/15 10:27:50;;;;;;;3.08;2.53;;;12.40;99.90;;;;;;5047029;28;20706;-88
2022/03/15 10:30:17;;;;;;;4.72;2.58;;;12.40;99.90;;;;;;5055411;28;20234;-87
2022/03/15 10:32:42;;;;;;;3.55;2.78;;;11.70;99.90;;;;;;5052229;28;20278;-85
2022/03/15 10:35:09;;;;;;;3.00;2.60;;;12.30;99.90;;;;;;5051350;28;20295;-88
2022/03/15 10:37:37;;;;;;;3.80;2.90;;;12.10;99.90;;;;;;5047388;28;20193;-91
2022/03/15 10:40:03;;;;;;;7.70;3.40;;;11.80;99.90;;;;;;5073109;28;20187;-91
2022/03/15 10:42:29;;;;;;;3.47;2.97;;;12.20;99.90;;;;;;5069494;28;20337;-91
2022/03/15 10:44:57;;;;;;;4.90;3.43;;;12.70;99.90;;;;;;5071866;28;20219;-91
2022/03/15 10:47:23;;;;;;;3.33;2.95;;;12.70;99.90;;;;;;5075033;28;20212;-90
2022/03/15 10:49:52;;;;;;;4.97;2.70;;;12.60;99.90;;;;;;5056547;28;20207;-90
2022/03/15 10:52:41;;;;;;;4.90;3.42;;;12.10;99.90;;;;;;5066945;28;20180;-89
2022/03/15 10:55:32;;;;;;;4.85;3.25;;;12.30;99.90;;;;;;5048047;28;20205;-91
2022/03/15 10:58:03;;;;;;;3.88;3.45;;;12.30;99.90;;;;;;5063175;28;20192;-91
2022/03/15 11:00:41;;;;;;;6.07;3.30;;;12.40;99.90;;;;;;5069012;28;20189;-90
2022/03/15 11:03:10;;;;;;;4.68;3.78;;;12.20;99.90;;;;;;5063942;28;20294;-90
2022/03/15 11:05:38;;;;;;;3.85;3.55;;;13.00;99.90;;;;;;5055804;28;20702;-91
2022/03/15 11:08:06;;;;;;;8.38;4.00;;;12.90;99.90;;;;;;5055958;28;20728;-88
2022/03/15 11:10:32;;;;;;;6.57;3.65;;;13.00;99.90;;;;;;5063132;28;20192;-89
2022/03/15 11:13:02;;;;;;;5.50;3.95;;;12.90;99.90;;;;;;5055996;28;20180;-89
2022/03/15 11:15:30;;;;;;;5.28;3.58;;;12.70;99.90;;;;;;5053222;28;20243;-89
2022/03/15 11:18:04;;;;;;;3.88;2.97;;;12.70;99.90;;;;;;5051514;28;20178;-90
2022/03/15 11:20:35;;;;;;;6.22;3.10;;;13.10;99.90;;;;;;5064406;28;20194;-88
2022/03/15 11:23:02;;;;;;;3.97;3.45;;;13.20;99.90;;;;;;5057993;28;20191;-88
2022/03/15 11:25:42;;;;;;;4.05;3.65;;;13.10;99.90;;;;;;5062419;28;20204;-90
2022/03/15 11:28:19;;;;;;;5.68;4.80;;;13.00;99.90;;;;;;5055351;28;20188;-90
2022/03/15 11:30:45;;;;;;;5.63;4.30;;;12.30;99.90;;;;;;5056959;28;20597;-90
2022/03/15 11:33:11;;;;;;;6.93;5.47;;;12.50;99.90;;;;;;5050815;28;20820;-85
2022/03/15 11:35:39;;;;;;;7.07;6.38;;;12.30;99.90;;;;;;5053031;28;20208;-83
2022/03/15 11:38:09;;;;;;;5.07;4.60;;;11.90;99.90;;;;;;5041703;28;20615;-83
2022/03/15 11:40:35;;;;;;;3.55;3.25;;;11.60;99.90;;;;;;5047541;28;20232;-85
2022/03/15 11:43:15;;;;;;;4.10;3.70;;;11.80;99.90;;;;;;5063769;28;20190;-84
2022/03/15 11:46:04;;;;;;;7.85;4.82;;;11.80;99.90;;;;;;5049436;28;20233;-87
2022/03/15 11:48:53;;;;;;;6.47;4.90;;;11.90;99.90;;;;;;5071864;28;20180;-88
2022/03/15 11:51:31;;;;;;;5.28;4.45;;;11.70;99.90;;;;;;5067823;28;20187;-86
2022/03/15 11:54:19;;;;;;;4.80;4.30;;;11.60;99.90;;;;;;5055083;28;20659;-86
2022/03/15 11:56:48;;;;;;;5.05;4.57;;;11.90;99.90;;;;;;5054310;28;20249;-86
2022/03/15 11:59:15;;;;;;;5.05;4.47;;;12.10;99.90;;;;;;5051958;28;20305;-85
2022/03/15 12:01:52;;;;;;;6.10;5.35;;;11.80;99.90;;;;;;5052032;28;20643;-85
2022/03/15 12:04:22;;;;;;;5.65;4.60;;;11.60;99.90;;;;;;5053513;28;20202;-86
2022/03/15 12:06:59;;;;;;;6.22;5.32;;;11.90;99.90;;;;;;5047513;28;20203;-86
2022/03/15 12:09:30;;;;;;;7.10;6.45;;;11.70;99.90;;;;;;5049356;28;20215;-85
2022/03/15 12:12:03;;;;;;;8.23;5.15;;;11.00;99.90;;;;;;5053734;28;20183;-85
2022/03/15 12:14:46;;;;;;;6.90;6.30;;;11.50;99.90;;;;;;5061449;28;20301;-84
2022/03/15 12:17:12;;;;;;;8.02;5.95;;;11.80;99.90;;;;;;5051697;28;20187;-85
2022/03/15 12:19:49;;;;;;;9.15;5.78;;;11.70;99.90;;;;;;5049942;28;20188;-86
2022/03/15 12:22:23;;;;;;;7.22;5.70;;;11.30;99.90;;;;;;5072552;28;20244;-88
2022/03/15 12:24:49;;;;;;;6.95;5.97;;;11.50;99.90;;;;;;5052847;28;20248;-86
2022/03/15 12:27:16;;;;;;;6.22;5.63;;;11.90;99.90;;;;;;5038000;28;20203;-86
2022/03/15 12:30:01;;;;;;;6.20;5.40;;;11.50;99.90;;;;;;5062853;28;20198;-84
2022/03/15 12:32:27;;;;;;;8.85;6.97;;;10.90;99.90;;;;;;5052431;28;20182;-82
2022/03/15 12:34:55;;;;;;;8.17;6.13;;;11.40;99.90;;;;;;5067588;28;20327;-87
2022/03/15 12:37:39;;;;;;;6.80;6.25;;;11.30;99.90;;;;;;5053971;28;20420;-88
2022/03/15 12:40:07;;;;;;;7.88;5.95;;;11.40;99.90;;;;;;5067930;28;20192;-85
2022/03/15 12:42:33;;;;;;;6.80;6.05;;;11.40;99.90;;;;;;5053081;28;20192;-86
2022/03/15 12:44:59;;;;;;;9.20;6.47;;;11.40;99.90;;;;;;5068028;28;20295;-85
2022/03/15 12:47:29;;;;;;;8.63;6.80;;;11.50;99.90;;;;;;5073247;28;20450;-87
2022/03/15 12:50:05;;;;;;;8.38;6.20;;;11.10;99.90;;;;;;5070263;28;20194;-85
2022/03/15 12:52:49;;;;;;;7.20;6.55;;;11.10;99.90;;;;;;5049307;28;20180;-86
2022/03/15 12:55:35;;;;;;;9.82;6.10;;;11.40;99.90;;;;;;5050539;28;20197;-85